Time;durP1;ratioP1;P1;durP2;ratioP2;P2;SDS_P1;SDS_P2;PMS_P1;PMS_P2;Temp;Humidity;BMP_temperature;BMP_pressure;BME280_temperature;BME280_humidity;BME280_pressure;Samples;Min_cycle;Max_cycle;Signal;HPM_P1;HPM_P2
2022/12/01 00:03:08;;;;;;;103.97;83.05;;;20.20;48.50;;;;;;4795725;55;21445;-31
2022/12/01 00:08:08;;;;;;;99.40;79.53;;;20.20;48.40;;;;;;4694252;59;21023;-33
2022/12/01 00:13:09;;;;;;;93.15;74.93;;;20.20;48.40;;;;;;4811970;55;21442;-35
2022/12/01 00:18:10;;;;;;;97.25;76.57;;;20.20;48.50;;;;;;4952501;55;21068;-30
2022/12/01 00:23:11;;;;;;;95.28;76.15;;;20.20;48.40;;;;;;4772512;55;21055;-30
2022/12/01 00:28:11;;;;;;;95.68;75.68;;;20.20;48.40;;;;;;4694507;59;21501;-33
2022/12/01 00:33:12;;;;;;;91.57;73.80;;;20.20;48.40;;;;;;4862976;55;20996;-35
2022/12/01 00:38:13;;;;;;;89.25;71.70;;;20.20;48.40;;;;;;4893434;55;21067;-33
2022/12/01 00:43:14;;;;;;;93.70;72.37;;;20.20;48.50;;;;;;5020120;55;21040;-35
2022/12/01 00:48:15;;;;;;;87.60;69.60;;;20.20;48.30;;;;;;4715133;55;21040;-32
2022/12/01 00:53:15;;;;;;;87.22;70.12;;;20.20;48.30;;;;;;4971254;55;21072;-35
2022/12/01 00:58:16;;;;;;;84.25;68.12;;;20.20;48.30;;;;;;4839274;55;21518;-30
2022/12/01 01:03:17;;;;;;;82.15;67.72;;;20.10;48.80;;;;;;4965718;55;21558;-33
2022/12/01 01:08:18;;;;;;;81.43;65.18;;;20.10;48.20;;;;;;4892979;55;21494;-35
2022/12/01 01:13:18;;;;;;;83.20;66.25;;;20.20;48.30;;;;;;4718168;55;21012;-28
2022/12/01 01:18:19;;;;;;;81.65;64.78;;;20.20;48.30;;;;;;4717109;55;21008;-30
2022/12/01 01:23:20;;;;;;;80.05;64.22;;;20.20;48.30;;;;;;4877817;55;21005;-30
2022/12/01 01:28:21;;;;;;;80.75;64.20;;;20.20;48.20;;;;;;5015357;55;21024;-31
2022/12/01 01:33:22;;;;;;;76.50;60.97;;;20.10;48.20;;;;;;4695200;59;21478;-35
2022/12/01 01:38:22;;;;;;;77.20;61.58;;;20.10;48.20;;;;;;4716591;55;20996;-32
2022/12/01 01:46:55;;;;;;;75.07;60.10;;;20.20;48.20;;;;;;4695238;59;21020;-32
2022/12/01 01:51:56;;;;;;;73.12;59.53;;;20.10;48.10;;;;;;4802060;55;21056;-28
2022/12/01 01:57:00;;;;;;;71.93;57.92;;;20.10;48.10;;;;;;4751753;55;21521;-32
2022/12/01 02:02:08;;;;;;;71.18;57.65;;;20.10;48.10;;;;;;4811079;55;21000;-31
2022/12/01 02:07:12;;;;;;;69.78;55.75;;;20.10;48.00;;;;;;4793339;55;21028;-30
2022/12/01 02:15:10;;;;;;;69.85;56.60;;;20.10;48.00;;;;;;4872741;55;21008;-34
2022/12/01 02:24:40;;;;;;;69.22;55.22;;;20.10;48.10;;;;;;4760057;55;20985;-35
2022/12/01 02:33:23;;;;;;;65.40;53.25;;;20.10;48.10;;;;;;4703171;55;21037;-32
2022/12/01 02:39:06;;;;;;;61.63;50.25;;;20.10;48.00;;;;;;4797007;55;20996;-30
2022/12/01 02:44:37;;;;;;;64.05;51.47;;;20.10;47.90;;;;;;4982261;55;21028;-33
2022/12/01 02:49:51;;;;;;;60.83;49.92;;;20.10;47.90;;;;;;4911072;55;21028;-32
2022/12/01 02:54:53;;;;;;;60.40;49.70;;;20.10;47.90;;;;;;4695281;59;21052;-32
2022/12/01 02:59:54;;;;;;;61.40;49.08;;;20.10;47.90;;;;;;4695452;59;21059;-34
2022/12/01 03:05:17;;;;;;;60.83;49.33;;;20.10;47.90;;;;;;4723493;55;21478;-35
2022/12/01 03:10:47;;;;;;;61.03;49.78;;;20.10;47.90;;;;;;4750681;55;21045;-34
2022/12/01 03:16:11;;;;;;;58.95;47.88;;;20.10;47.90;;;;;;4820435;55;21008;-35
2022/12/01 03:21:34;;;;;;;56.65;47.33;;;20.10;47.90;;;;;;4772361;55;21044;-34
2022/12/01 03:26:36;;;;;;;58.38;48.20;;;20.10;47.80;;;;;;4850729;55;21044;-34
2022/12/01 03:31:49;;;;;;;54.47;45.10;;;20.10;47.80;;;;;;4894686;55;21005;-33
2022/12/01 03:36:57;;;;;;;52.95;44.08;;;20.10;47.80;;;;;;4771513;55;21053;-29
2022/12/01 03:42:14;;;;;;;52.97;44.25;;;20.10;47.80;;;;;;4718601;55;21055;-26
2022/12/01 03:47:30;;;;;;;55.00;44.37;;;20.10;47.80;;;;;;4771130;55;21068;-32
2022/12/01 03:53:02;;;;;;;52.47;43.17;;;20.10;47.80;;;;;;4935440;55;21462;-31
2022/12/01 03:58:11;;;;;;;51.37;41.72;;;20.10;47.80;;;;;;4695139;59;21024;-32
2022/12/01 04:03:21;;;;;;;52.03;43.10;;;20.10;47.90;;;;;;4807713;55;21000;-32
2022/12/01 04:08:22;;;;;;;49.30;40.05;;;20.10;47.90;;;;;;4742933;55;21002;-34
2022/12/01 04:13:24;;;;;;;53.87;43.75;;;20.10;47.90;;;;;;4807926;55;21005;-35
2022/12/01 04:18:25;;;;;;;46.88;39.67;;;20.10;47.90;;;;;;4929674;55;21457;-34
2022/12/01 04:28:45;;;;;;;48.22;39.78;;;20.10;48.00;;;;;;4693949;55;21060;-32
2022/12/01 04:33:46;;;;;;;50.20;40.38;;;20.10;48.00;;;;;;5098421;55;21478;-34
2022/12/01 04:38:46;;;;;;;46.67;38.80;;;20.10;48.00;;;;;;5169450;55;21063;-34
2022/12/01 04:43:47;;;;;;;46.35;38.53;;;20.10;48.00;;;;;;5019168;55;21005;-33
2022/12/01 04:48:48;;;;;;;44.63;36.58;;;20.10;48.00;;;;;;4749762;55;21160;-31
2022/12/01 04:53:50;;;;;;;43.33;35.72;;;20.10;48.00;;;;;;4694637;59;20988;-30
2022/12/01 04:58:50;;;;;;;46.28;36.63;;;20.10;48.00;;;;;;4750886;55;21306;-30
2022/12/01 05:03:51;;;;;;;43.80;36.33;;;20.10;48.10;;;;;;4694843;59;21104;-31
2022/12/01 05:08:58;;;;;;;40.97;34.05;;;20.10;48.10;;;;;;4743175;55;21071;-31
2022/12/01 05:13:59;;;;;;;41.20;33.87;;;20.10;48.20;;;;;;4695843;59;20989;-34
2022/12/01 05:24:22;;;;;;;40.75;34.10;;;20.10;48.30;;;;;;4695035;55;21012;-34
2022/12/01 05:29:22;;;;;;;39.90;34.08;;;20.10;49.00;;;;;;4735253;55;21393;-33
2022/12/01 05:34:23;;;;;;;39.13;33.90;;;20.10;48.40;;;;;;4703591;55;21016;-34
2022/12/01 05:39:24;;;;;;;39.10;33.38;;;20.10;48.40;;;;;;4772599;55;21000;-29
2022/12/01 05:44:25;;;;;;;39.00;33.97;;;20.10;48.40;;;;;;4850603;55;20984;-33
2022/12/01 05:49:25;;;;;;;38.75;33.03;;;20.10;48.40;;;;;;4785639;55;21072;-34
2022/12/01 05:54:29;;;;;;;40.60;34.30;;;20.10;48.40;;;;;;4764283;55;21048;-30
2022/12/01 05:59:29;;;;;;;36.67;31.37;;;20.10;48.40;;;;;;4890308;55;20972;-33
2022/12/01 06:04:30;;;;;;;38.58;32.53;;;20.10;48.40;;;;;;4778267;55;21004;-31
2022/12/01 06:09:31;;;;;;;35.90;30.88;;;20.10;48.40;;;;;;4709697;55;21485;-35
2022/12/01 06:14:32;;;;;;;39.00;32.13;;;20.10;48.40;;;;;;4774642;55;21047;-34
2022/12/01 06:19:33;;;;;;;37.40;31.30;;;20.10;48.40;;;;;;4693951;59;21076;-27
2022/12/01 06:24:33;;;;;;;39.67;31.33;;;20.10;49.10;;;;;;4832068;55;21043;-36
2022/12/01 06:29:34;;;;;;;36.20;31.42;;;20.00;48.30;;;;;;4915393;55;21035;-29
2022/12/01 06:34:35;;;;;;;36.42;30.12;;;20.10;48.40;;;;;;4694881;59;21005;-28
2022/12/01 06:39:36;;;;;;;37.25;32.05;;;20.00;48.30;;;;;;5081855;55;21481;-34
2022/12/01 06:44:37;;;;;;;36.25;30.92;;;20.10;48.40;;;;;;4694858;55;21470;-32
2022/12/01 06:49:38;;;;;;;38.97;32.80;;;20.10;48.40;;;;;;4764808;55;21509;-33
2022/12/01 06:54:39;;;;;;;39.17;32.22;;;20.10;48.40;;;;;;4695363;56;21060;-32
2022/12/01 06:59:40;;;;;;;39.78;33.63;;;20.10;48.40;;;;;;4707533;55;21008;-32
2022/12/01 07:04:41;;;;;;;38.60;32.70;;;20.00;48.30;;;;;;4694731;59;21522;-33
2022/12/01 07:09:41;;;;;;;38.90;32.28;;;20.10;48.30;;;;;;4730377;55;21020;-33
2022/12/01 07:14:42;;;;;;;41.45;34.55;;;20.00;48.30;;;;;;4949164;55;21076;-34
2022/12/01 07:19:43;;;;;;;41.33;34.65;;;20.00;48.30;;;;;;4695031;55;21020;-31
2022/12/01 07:24:44;;;;;;;36.83;32.55;;;20.10;48.30;;;;;;4864929;55;20992;-33
2022/12/01 07:29:45;;;;;;;39.75;33.55;;;20.10;48.30;;;;;;4834369;55;21346;-32
2022/12/01 07:34:46;;;;;;;41.40;35.08;;;20.00;48.30;;;;;;4816761;55;21005;-26
2022/12/01 07:39:47;;;;;;;42.15;35.03;;;20.10;48.30;;;;;;4893974;55;21011;-31
2022/12/01 07:44:47;;;;;;;42.15;35.40;;;20.00;48.20;;;;;;4741551;55;21516;-30
2022/12/01 07:49:48;;;;;;;42.55;34.38;;;20.00;48.20;;;;;;4695997;55;21105;-30
2022/12/01 07:54:49;;;;;;;43.92;36.22;;;20.00;48.30;;;;;;4695152;59;21064;-27
2022/12/01 07:59:51;;;;;;;44.28;35.58;;;20.10;48.30;;;;;;4733694;55;21012;-32
2022/12/01 08:04:52;;;;;;;45.55;37.45;;;20.00;48.20;;;;;;4752024;55;21565;-26
2022/12/01 08:09:53;;;;;;;51.00;41.20;;;20.00;48.30;;;;;;4734107;55;21035;-24
2022/12/01 08:14:54;;;;;;;49.72;41.17;;;20.10;48.30;;;;;;4851670;55;21028;-24
2022/12/01 08:19:55;;;;;;;53.42;42.53;;;20.10;48.30;;;;;;4849927;55;20992;-27
2022/12/01 08:24:55;;;;;;;55.42;44.10;;;20.10;48.30;;;;;;4706316;55;21004;-27
2022/12/01 08:29:56;;;;;;;59.33;46.72;;;20.20;48.30;;;;;;4849354;55;21487;-24
2022/12/01 08:34:57;;;;;;;58.22;45.67;;;20.20;48.20;;;;;;4851483;55;21553;-27
2022/12/01 08:39:58;;;;;;;64.37;49.13;;;20.20;48.10;;;;;;4709356;55;20992;-26
2022/12/01 08:44:59;;;;;;;69.20;48.95;;;20.20;48.10;;;;;;4733380;55;21113;-33
2022/12/01 08:49:59;;;;;;;65.20;50.20;;;20.30;48.10;;;;;;4905624;55;21088;-26
2022/12/01 08:55:01;;;;;;;72.18;52.28;;;20.30;48.10;;;;;;4695392;55;21537;-35
2022/12/01 09:00:02;;;;;;;75.43;54.50;;;20.30;48.10;;;;;;4913064;55;21067;-32
2022/12/01 09:05:04;;;;;;;75.72;57.13;;;20.30;48.00;;;;;;4773472;55;20992;-28
2022/12/01 09:10:06;;;;;;;84.47;61.75;;;20.30;48.00;;;;;;4861430;55;20996;-25
2022/12/01 09:15:08;;;;;;;89.28;66.25;;;20.30;47.90;;;;;;4770404;55;21059;-34
2022/12/01 09:20:10;;;;;;;93.07;69.03;;;20.30;47.90;;;;;;4733889;55;21474;-35
2022/12/01 09:25:13;;;;;;;93.78;70.95;;;20.40;48.00;;;;;;4694542;59;20996;-26
2022/12/01 09:30:14;;;;;;;105.30;76.43;;;20.40;47.90;;;;;;4819890;55;21542;-30
2022/12/01 09:35:15;;;;;;;106.30;78.40;;;20.40;48.00;;;;;;4818217;55;21139;-33
2022/12/01 09:40:16;;;;;;;115.30;84.32;;;20.40;47.90;;;;;;4721295;55;20992;-25
2022/12/01 09:45:26;;;;;;;124.60;88.97;;;20.40;48.00;;;;;;4909517;55;21036;-25
2022/12/01 09:50:29;;;;;;;122.87;91.53;;;20.40;48.00;;;;;;4899315;55;21068;-25
2022/12/01 09:55:32;;;;;;;127.82;94.47;;;20.40;48.00;;;;;;4726963;55;21505;-26
2022/12/01 10:00:36;;;;;;;134.63;99.30;;;20.40;48.10;;;;;;4716434;55;20999;-25
2022/12/01 10:06:18;;;;;;;132.00;98.28;;;20.40;47.90;;;;;;4735217;55;21067;-28
2022/12/01 10:11:39;;;;;;;135.68;101.10;;;20.40;47.70;;;;;;4899182;55;21008;-26
2022/12/01 10:17:58;;;;;;;139.02;102.50;;;20.40;47.60;;;;;;4714576;55;21011;-34
2022/12/01 10:24:47;;;;;;;148.50;106.78;;;20.40;47.80;;;;;;4696487;55;21051;-26
2022/12/01 10:30:01;;;;;;;148.50;110.57;;;20.40;47.80;;;;;;4802032;55;21015;-30
2022/12/01 10:35:03;;;;;;;153.32;111.53;;;20.40;48.10;;;;;;4790252;55;20993;-28
2022/12/01 10:40:05;;;;;;;151.85;109.35;;;20.50;48.30;;;;;;4740639;55;21121;-26
2022/12/01 10:45:14;;;;;;;154.18;111.37;;;20.50;48.40;;;;;;4787647;55;21009;-26
2022/12/01 10:50:26;;;;;;;145.55;110.68;;;20.50;48.60;;;;;;4693636;59;21099;-24
2022/12/01 10:55:32;;;;;;;150.23;110.20;;;20.50;48.70;;;;;;4735111;55;21530;-25
2022/12/01 11:00:38;;;;;;;157.77;116.80;;;20.60;48.70;;;;;;4730475;55;21004;-29
2022/12/01 11:05:41;;;;;;;152.43;114.78;;;20.60;48.90;;;;;;4811300;55;21027;-28
2022/12/01 11:10:48;;;;;;;150.32;113.53;;;20.60;48.90;;;;;;4758530;55;21083;-25
2022/12/01 11:15:57;;;;;;;155.82;113.90;;;20.70;49.00;;;;;;4796935;55;21004;-26
2022/12/01 11:21:26;;;;;;;159.02;118.30;;;20.70;49.10;;;;;;4738911;55;21008;-27
2022/12/01 11:26:33;;;;;;;154.77;113.65;;;20.70;49.20;;;;;;4847273;55;21075;-29
2022/12/01 11:31:45;;;;;;;153.43;116.17;;;20.70;49.30;;;;;;4867843;55;21497;-25
2022/12/01 11:36:49;;;;;;;160.48;118.37;;;20.70;49.30;;;;;;4694449;55;21000;-29
2022/12/01 11:41:55;;;;;;;161.75;118.65;;;20.70;49.40;;;;;;4694921;59;21000;-29
2022/12/01 11:46:57;;;;;;;158.65;119.53;;;20.70;49.40;;;;;;4784651;55;21048;-32
2022/12/01 11:52:26;;;;;;;158.10;120.07;;;20.70;49.50;;;;;;5003808;55;21478;-26
2022/12/01 11:57:29;;;;;;;166.60;122.90;;;20.80;49.60;;;;;;4694762;59;21090;-26
2022/12/01 12:09:38;;;;;;;168.87;125.38;;;20.80;49.70;;;;;;4952224;55;21008;-30
2022/12/01 12:17:30;;;;;;;176.73;127.93;;;20.80;49.70;;;;;;4694917;55;21486;-33
2022/12/01 12:26:12;;;;;;;174.02;131.12;;;20.80;49.80;;;;;;4786502;55;21000;-27
2022/12/01 12:31:34;;;;;;;171.95;131.32;;;20.80;49.80;;;;;;4734125;55;21107;-25
2022/12/01 12:37:15;;;;;;;170.15;132.37;;;20.80;49.40;;;;;;4694456;59;21020;-27
2022/12/01 12:42:54;;;;;;;184.65;136.00;;;20.80;49.10;;;;;;4717888;55;21056;-26
2022/12/01 12:49:41;;;;;;;174.38;133.23;;;20.80;49.00;;;;;;4770671;55;21073;-34
2022/12/01 12:55:55;;;;;;;181.40;135.85;;;20.70;48.80;;;;;;4696835;55;21099;-29
2022/12/01 13:01:17;;;;;;;176.70;137.23;;;20.70;48.60;;;;;;4922809;55;21080;-34
2022/12/01 13:07:00;;;;;;;176.35;132.20;;;20.70;48.50;;;;;;4731650;55;21024;-28
2022/12/01 13:12:14;;;;;;;178.38;136.88;;;20.60;48.20;;;;;;4808373;55;21064;-36
2022/12/01 13:17:24;;;;;;;178.82;134.23;;;20.70;48.70;;;;;;4749802;55;21498;-38
2022/12/01 13:22:31;;;;;;;176.87;133.50;;;20.70;48.80;;;;;;4722317;55;21048;-29
2022/12/01 13:27:37;;;;;;;179.57;133.23;;;20.80;49.10;;;;;;4751736;55;21159;-34
2022/12/01 13:32:39;;;;;;;185.82;139.10;;;20.70;49.10;;;;;;4694812;56;21506;-28
2022/12/01 13:37:40;;;;;;;193.55;142.10;;;20.80;49.30;;;;;;4936425;55;21059;-33
2022/12/01 13:42:42;;;;;;;186.35;139.07;;;20.80;49.40;;;;;;4695201;59;21024;-35
2022/12/01 13:47:54;;;;;;;191.57;141.43;;;20.80;49.20;;;;;;5026635;55;21088;-28
2022/12/01 13:53:11;;;;;;;195.62;141.68;;;20.80;49.50;;;;;;5039456;55;21501;-28
2022/12/01 13:58:22;;;;;;;201.53;148.57;;;20.80;49.50;;;;;;4694841;59;21524;-25
2022/12/01 14:03:37;;;;;;;201.10;148.70;;;20.80;50.00;;;;;;4738992;55;21521;-27
2022/12/01 14:08:48;;;;;;;216.25;155.98;;;20.80;49.80;;;;;;4713943;55;21167;-30
2022/12/01 14:14:38;;;;;;;221.60;155.07;;;20.80;49.70;;;;;;4759245;55;21031;-30
2022/12/01 14:20:21;;;;;;;242.40;165.32;;;20.80;49.70;;;;;;4695124;59;21000;-25
2022/12/01 14:25:25;;;;;;;256.55;172.07;;;20.80;49.60;;;;;;4694944;59;21490;-25
2022/12/01 14:32:20;;;;;;;262.90;179.90;;;20.80;49.60;;;;;;4729825;55;21012;-37
2022/12/01 14:37:26;;;;;;;275.50;183.05;;;20.80;49.40;;;;;;4708355;55;20996;-28
2022/12/01 14:48:03;;;;;;;263.87;181.32;;;20.80;49.20;;;;;;4693397;55;21330;-29
2022/12/01 14:53:14;;;;;;;256.33;172.80;;;20.80;49.60;;;;;;4735621;55;21056;-27
2022/12/01 14:58:30;;;;;;;257.90;177.57;;;20.90;49.70;;;;;;4785741;55;21076;-31
2022/12/01 15:03:54;;;;;;;261.08;178.38;;;20.90;49.80;;;;;;4756585;55;21000;-28
2022/12/01 15:10:54;;;;;;;264.75;177.60;;;20.90;50.00;;;;;;4776501;55;21139;-26
2022/12/01 15:16:04;;;;;;;250.75;171.80;;;21.00;50.30;;;;;;4694676;59;20996;-28
2022/12/01 15:22:10;;;;;;;250.45;173.20;;;21.00;50.20;;;;;;4698764;55;20992;-30
2022/12/01 15:27:31;;;;;;;245.23;168.37;;;21.00;50.50;;;;;;4719151;55;21044;-27
2022/12/01 15:32:36;;;;;;;244.93;170.38;;;21.00;50.40;;;;;;4694866;59;21554;-30
2022/12/01 15:37:43;;;;;;;239.80;162.95;;;21.00;50.50;;;;;;4916174;55;21506;-33
2022/12/01 15:42:58;;;;;;;237.37;164.33;;;21.00;50.40;;;;;;4726100;55;21047;-32
2022/12/01 15:47:59;;;;;;;226.37;154.87;;;21.00;50.30;;;;;;4826294;55;21514;-29
2022/12/01 15:53:06;;;;;;;235.65;161.15;;;21.00;50.40;;;;;;4860661;55;21554;-27
2022/12/01 15:58:15;;;;;;;216.32;157.23;;;21.00;50.50;;;;;;4691698;59;21052;-34
2022/12/01 16:03:16;;;;;;;218.25;152.07;;;20.90;50.50;;;;;;4807698;55;21581;-27
2022/12/01 16:08:23;;;;;;;222.12;154.82;;;20.90;50.50;;;;;;4834935;55;21075;-30
2022/12/01 16:16:42;;;;;;;216.82;151.48;;;20.80;50.40;;;;;;4836147;55;21016;-32
2022/12/01 16:22:01;;;;;;;204.40;147.00;;;20.80;50.50;;;;;;4697592;55;21027;-29
2022/12/01 16:27:15;;;;;;;206.50;147.43;;;20.70;50.40;;;;;;4726748;55;21120;-37
2022/12/01 16:32:20;;;;;;;204.77;146.32;;;20.70;50.40;;;;;;4907999;55;21056;-33
2022/12/01 16:37:21;;;;;;;212.32;148.90;;;20.70;50.50;;;;;;4712922;55;21039;-28
2022/12/01 16:42:22;;;;;;;211.15;148.27;;;20.60;50.40;;;;;;4766467;55;21478;-30
2022/12/01 16:47:24;;;;;;;205.55;146.07;;;20.60;50.40;;;;;;4978483;55;21028;-28
2022/12/01 16:52:25;;;;;;;196.68;143.10;;;20.60;50.40;;;;;;5007088;55;21583;-28
2022/12/01 16:57:26;;;;;;;192.18;140.62;;;20.60;50.40;;;;;;4815751;55;21063;-30
2022/12/01 17:02:27;;;;;;;190.18;139.50;;;20.60;50.40;;;;;;4764083;55;21004;-33
2022/12/01 17:07:28;;;;;;;191.75;139.95;;;20.50;50.30;;;;;;4836513;55;21538;-30
2022/12/01 17:12:29;;;;;;;190.18;138.25;;;20.50;50.30;;;;;;4732741;55;21505;-33
2022/12/01 17:17:29;;;;;;;194.85;141.40;;;20.50;50.30;;;;;;4695307;59;21000;-35
2022/12/01 17:22:30;;;;;;;192.18;140.62;;;20.50;50.40;;;;;;4694976;59;21000;-32
2022/12/01 17:27:31;;;;;;;181.57;133.75;;;20.50;50.30;;;;;;4775875;55;21032;-29
2022/12/01 17:32:32;;;;;;;188.82;137.12;;;20.50;50.30;;;;;;4737171;55;21012;-30
2022/12/01 17:37:35;;;;;;;181.23;134.82;;;20.50;50.30;;;;;;4694850;56;21020;-34
2022/12/01 17:42:36;;;;;;;182.68;131.50;;;20.50;50.30;;;;;;4950273;55;21514;-36
2022/12/01 17:47:37;;;;;;;182.02;132.75;;;20.50;50.30;;;;;;5052136;55;21256;-33
2022/12/01 17:52:38;;;;;;;178.48;131.23;;;20.50;50.20;;;;;;4694774;59;21000;-33
2022/12/01 17:57:38;;;;;;;173.65;128.48;;;20.40;50.20;;;;;;4694829;59;21503;-35
2022/12/01 18:02:39;;;;;;;176.77;130.87;;;20.40;50.20;;;;;;4694499;59;21565;-35
2022/12/01 18:07:40;;;;;;;178.80;132.43;;;20.40;50.20;;;;;;5169313;55;21075;-36
2022/12/01 18:12:41;;;;;;;168.98;127.68;;;20.40;50.20;;;;;;4694947;59;20993;-33
2022/12/01 18:17:42;;;;;;;176.70;130.43;;;20.40;50.20;;;;;;5169678;55;21047;-33
2022/12/01 18:22:43;;;;;;;166.82;125.72;;;20.40;50.10;;;;;;4838168;55;21036;-38
2022/12/01 18:27:44;;;;;;;163.98;121.85;;;20.40;50.10;;;;;;5049793;55;21012;-37
2022/12/01 18:32:44;;;;;;;166.18;126.10;;;20.40;50.10;;;;;;4770527;55;21020;-29
2022/12/01 18:37:45;;;;;;;159.02;122.72;;;20.40;50.10;;;;;;4695048;59;21489;-33
2022/12/01 18:42:48;;;;;;;165.98;124.03;;;20.40;50.10;;;;;;4894996;55;21422;-32
2022/12/01 18:47:49;;;;;;;163.25;122.53;;;20.40;50.20;;;;;;4694371;59;21514;-34
2022/12/01 18:52:49;;;;;;;167.10;124.43;;;20.40;50.10;;;;;;4857528;55;21021;-35
2022/12/01 18:57:50;;;;;;;162.60;122.25;;;20.40;50.10;;;;;;4761230;55;21477;-28
2022/12/01 19:02:51;;;;;;;151.93;118.30;;;20.40;50.20;;;;;;4735688;55;21051;-33
2022/12/01 19:07:53;;;;;;;162.00;122.75;;;20.40;50.80;;;;;;4764320;55;21270;-35
2022/12/01 19:12:54;;;;;;;156.57;118.55;;;20.40;50.20;;;;;;4835652;55;21012;-30
2022/12/01 19:17:54;;;;;;;153.77;118.25;;;20.40;50.20;;;;;;4694718;59;21020;-27
2022/12/01 19:22:55;;;;;;;156.52;120.03;;;20.40;50.20;;;;;;4971848;55;21056;-29
2022/12/01 19:27:56;;;;;;;154.00;119.37;;;20.40;50.20;;;;;;4968749;55;21024;-35
2022/12/01 19:32:57;;;;;;;154.05;117.57;;;20.40;50.20;;;;;;4735712;55;21099;-33
2022/12/01 19:37:58;;;;;;;151.75;116.20;;;20.40;50.20;;;;;;4748320;55;21069;-30
2022/12/01 19:42:59;;;;;;;155.45;117.37;;;20.40;50.20;;;;;;4694795;59;21060;-37
2022/12/01 19:47:59;;;;;;;152.93;115.60;;;20.40;50.20;;;;;;4694306;59;21590;-36
2022/12/01 19:53:00;;;;;;;148.62;118.50;;;20.40;50.20;;;;;;4696598;55;21598;-36
2022/12/01 19:58:03;;;;;;;153.98;117.30;;;20.40;50.20;;;;;;5029270;55;21016;-31
2022/12/01 20:03:03;;;;;;;147.87;115.50;;;20.40;50.20;;;;;;4962378;55;21474;-36
2022/12/01 20:08:05;;;;;;;153.30;116.35;;;20.30;50.10;;;;;;4727731;55;21060;-33
2022/12/01 20:13:05;;;;;;;150.00;116.25;;;20.40;50.20;;;;;;4813218;55;21494;-30
2022/12/01 20:18:07;;;;;;;147.07;111.97;;;20.30;50.10;;;;;;4695047;59;21083;-34
2022/12/01 20:23:08;;;;;;;150.98;115.72;;;20.30;50.10;;;;;;4908119;55;21530;-37
2022/12/01 20:28:09;;;;;;;146.68;113.65;;;20.30;50.10;;;;;;4694377;55;21083;-33
2022/12/01 20:33:10;;;;;;;145.15;112.43;;;20.30;50.10;;;;;;4694850;59;21482;-31
2022/12/01 20:38:10;;;;;;;146.37;113.70;;;20.30;50.10;;;;;;4793154;55;21040;-30
2022/12/01 20:43:11;;;;;;;143.87;112.47;;;20.30;50.10;;;;;;4751976;55;21024;-35
2022/12/01 20:48:12;;;;;;;142.15;111.75;;;20.30;50.10;;;;;;4733217;55;21585;-34
2022/12/01 20:53:14;;;;;;;139.93;108.03;;;20.30;50.10;;;;;;4804423;55;21475;-31
2022/12/01 20:58:14;;;;;;;139.65;110.82;;;20.30;50.00;;;;;;4740026;55;21063;-36
2022/12/01 21:03:17;;;;;;;143.55;108.28;;;20.30;50.00;;;;;;4695307;59;21049;-34
2022/12/01 21:08:17;;;;;;;133.98;104.55;;;20.30;49.90;;;;;;5119415;55;21502;-36
2022/12/01 21:19:10;;;;;;;137.52;108.55;;;20.30;49.90;;;;;;4695058;55;21091;-29
2022/12/01 21:24:15;;;;;;;136.27;108.60;;;20.30;50.00;;;;;;5169995;55;21478;-36
2022/12/01 21:29:22;;;;;;;136.88;107.70;;;20.30;49.80;;;;;;4736420;55;21498;-36
2022/12/01 21:34:26;;;;;;;132.93;106.60;;;20.30;49.90;;;;;;4916452;55;21529;-32
2022/12/01 21:39:29;;;;;;;135.18;107.28;;;20.30;49.90;;;;;;4719847;55;20992;-40
2022/12/01 21:44:35;;;;;;;130.07;100.93;;;20.30;49.70;;;;;;4866346;55;20996;-37
2022/12/01 21:49:39;;;;;;;138.75;107.97;;;20.30;49.80;;;;;;4694608;59;21076;-34
2022/12/01 21:54:40;;;;;;;129.10;101.65;;;20.30;49.70;;;;;;5084945;55;21007;-36
2022/12/01 21:59:41;;;;;;;130.75;102.18;;;20.30;49.80;;;;;;4714963;55;21011;-37
2022/12/01 22:04:42;;;;;;;128.02;100.40;;;20.30;49.70;;;;;;4823679;55;21047;-33
2022/12/01 22:09:43;;;;;;;124.20;97.82;;;20.30;49.70;;;;;;4868726;55;21806;-34
2022/12/01 22:14:43;;;;;;;126.65;101.20;;;20.30;49.70;;;;;;5083366;55;21060;-34
2022/12/01 22:19:52;;;;;;;123.70;96.53;;;20.30;49.70;;;;;;4847677;55;21068;-31
2022/12/01 22:25:14;;;;;;;125.32;98.75;;;20.30;49.70;;;;;;4860218;55;21116;-31
2022/12/01 22:30:21;;;;;;;121.75;96.47;;;20.20;49.70;;;;;;4801781;55;20988;-34
2022/12/01 22:35:47;;;;;;;117.50;91.12;;;20.30;49.70;;;;;;4917119;55;21000;-29
2022/12/01 22:41:12;;;;;;;118.78;93.40;;;20.30;49.70;;;;;;4695473;59;21474;-36
2022/12/01 22:46:33;;;;;;;120.25;93.07;;;20.20;49.70;;;;;;4771427;55;21119;-36
2022/12/01 22:51:58;;;;;;;111.20;91.25;;;20.20;49.50;;;;;;4866933;55;21147;-35
2022/12/01 22:57:41;;;;;;;112.05;90.97;;;20.20;49.60;;;;;;4896996;55;21072;-36
2022/12/01 23:02:42;;;;;;;115.22;92.30;;;20.20;49.50;;;;;;4694938;59;21019;-37
2022/12/01 23:07:44;;;;;;;112.82;89.05;;;20.20;49.50;;;;;;4835545;55;21072;-33
2022/12/01 23:12:47;;;;;;;108.50;86.95;;;20.20;49.50;;;;;;4864897;55;21541;-31
2022/12/01 23:17:49;;;;;;;108.95;85.53;;;20.20;49.70;;;;;;4891993;55;21052;-37
2022/12/01 23:22:54;;;;;;;112.50;88.43;;;20.20;49.50;;;;;;4703615;55;21008;-31
2022/12/01 23:27:59;;;;;;;110.47;87.28;;;20.20;49.40;;;;;;4694715;59;21542;-37
2022/12/01 23:33:33;;;;;;;105.70;85.95;;;20.20;49.40;;;;;;5169725;55;21063;-37
2022/12/01 23:38:37;;;;;;;105.25;83.00;;;20.20;49.40;;;;;;4695352;59;20988;-35
2022/12/01 23:43:41;;;;;;;104.95;83.03;;;20.20;49.40;;;;;;4695326;59;21012;-32
2022/12/01 23:48:49;;;;;;;101.47;83.35;;;20.20;49.40;;;;;;4694650;59;21031;-39
2022/12/01 23:53:50;;;;;;;;;;;20.20;49.50;;;;;;4698420;59;21048;-35
2022/12/01 23:58:53;;;;;;;104.95;82.75;;;20.20;49.50;;;;;;4759898;55;20113;-36
